createdAt,value
2019-04-05T00:00:49.400Z,22.03
2019-04-05T00:03:18.880Z,20.90
2019-04-05T00:05:48.056Z,20.10
2019-04-05T00:08:17.516Z,20.43
2019-04-05T00:10:47.273Z,20.23
2019-04-05T00:13:16.451Z,22.03
2019-04-05T00:15:47.017Z,21.13
2019-04-05T00:18:16.462Z,22.63
2019-04-05T00:20:46.815Z,22.47
2019-04-05T00:23:16.245Z,21.20
2019-04-05T00:25:46.550Z,24.43
2019-04-05T00:28:16.173Z,23.37
2019-04-05T00:30:45.743Z,23.33
2019-04-05T00:33:15.850Z,23.77
2019-04-05T00:35:45.302Z,23.13
2019-04-05T00:38:15.026Z,21.67
2019-04-05T00:40:46.384Z,26.70
2019-04-05T00:43:19.147Z,24.57
2019-04-05T00:45:48.361Z,25.43
2019-04-05T00:48:18.312Z,25.50
2019-04-05T00:50:48.431Z,25.97
2019-04-05T00:53:18.712Z,24.47
2019-04-05T00:55:48.723Z,26.07
2019-04-05T00:58:18.647Z,24.60
2019-04-05T01:00:47.844Z,25.33
2019-04-05T01:03:17.053Z,26.37
2019-04-05T01:05:46.950Z,23.13
2019-04-05T01:08:16.700Z,20.77
2019-04-05T01:10:46.489Z,24.30
2019-04-05T01:13:15.741Z,23.47
2019-04-05T01:15:47.063Z,23.00
2019-04-05T01:18:16.587Z,24.23
2019-04-05T01:20:49.183Z,23.40
2019-04-05T01:23:19.393Z,25.17
2019-04-05T01:25:49.957Z,21.97
2019-04-05T01:28:19.903Z,24.00
2019-04-05T01:30:49.893Z,25.10
2019-04-05T01:33:20.022Z,25.03
2019-04-05T01:35:49.228Z,22.70
2019-04-05T01:38:19.759Z,22.70
2019-04-05T01:40:48.970Z,19.33
2019-04-05T01:43:18.142Z,20.47
2019-04-05T01:45:53.686Z,20.57
2019-04-05T01:48:18.699Z,23.33
2019-04-05T01:50:50.177Z,22.17
2019-04-05T01:53:20.722Z,19.77
2019-04-05T01:55:49.999Z,24.33
2019-04-05T01:58:20.547Z,21.50
2019-04-05T02:00:50.869Z,22.67
2019-04-05T02:03:23.404Z,18.63
2019-04-05T02:05:53.927Z,19.67
2019-04-05T02:08:23.918Z,19.80
2019-04-05T02:10:54.805Z,18.07
2019-04-05T02:13:24.764Z,17.93
2019-04-05T02:16:05.737Z,20.03
2019-04-05T02:18:27.779Z,20.60
2019-04-05T02:20:57.984Z,19.47
2019-04-05T02:23:27.183Z,17.67
2019-04-05T02:25:57.826Z,17.83
2019-04-05T02:28:27.020Z,17.67
2019-04-05T02:30:56.182Z,18.30
2019-04-05T02:33:25.624Z,17.73
2019-04-05T02:35:54.785Z,17.40
2019-04-05T02:38:23.992Z,17.70
2019-04-05T02:40:59.156Z,17.43
2019-04-05T02:43:33.001Z,17.30
2019-04-05T02:46:04.440Z,19.03
2019-04-05T02:48:38.603Z,19.70
2019-04-05T02:51:09.290Z,18.63
2019-04-05T02:53:40.460Z,20.40
2019-04-05T02:56:10.047Z,20.10
2019-04-05T02:58:40.694Z,21.00
2019-04-05T03:01:13.064Z,19.17
2019-04-05T03:03:43.159Z,19.33
2019-04-05T03:06:12.670Z,22.13
2019-04-05T03:08:44.710Z,19.40
2019-04-05T03:11:16.420Z,19.37
2019-04-05T03:13:50.684Z,16.10
2019-04-05T03:16:39.597Z,15.47
2019-04-05T03:19:04.935Z,16.13
2019-04-05T03:21:38.312Z,17.60
2019-04-05T03:24:10.622Z,16.20
2019-04-05T03:26:42.769Z,14.93
2019-04-05T03:29:13.662Z,15.87
2019-04-05T03:31:43.229Z,13.83
2019-04-05T03:34:15.015Z,13.97
2019-04-05T03:36:44.160Z,15.33
2019-04-05T03:39:13.829Z,15.57
2019-04-05T03:41:43.793Z,12.93
2019-04-05T03:44:15.963Z,13.43
2019-04-05T03:46:56.814Z,13.57
2019-04-05T03:49:20.576Z,13.13
2019-04-05T03:51:50.794Z,12.33
2019-04-05T03:54:22.267Z,13.40
2019-04-05T03:56:51.745Z,12.50
2019-04-05T03:59:23.377Z,12.40
2019-04-05T04:01:54.301Z,13.50
2019-04-05T04:04:26.451Z,12.97
2019-04-05T04:06:56.623Z,12.90
2019-04-05T04:09:26.524Z,12.73
2019-04-05T04:11:56.723Z,13.20
2019-04-05T04:14:28.679Z,13.50
2019-04-05T04:17:11.387Z,13.80
2019-04-05T04:19:33.863Z,12.93
2019-04-05T04:22:19.812Z,11.47
2019-04-05T04:24:49.735Z,15.57
2019-04-05T04:27:19.284Z,13.50
2019-04-05T04:29:49.641Z,14.80
2019-04-05T04:32:20.415Z,13.47
2019-04-05T04:34:50.499Z,15.87
2019-04-05T04:37:20.781Z,14.73
2019-04-05T04:39:50.227Z,15.93
2019-04-05T04:42:21.015Z,15.10
2019-04-05T04:44:50.481Z,13.87
2019-04-05T04:47:26.819Z,17.13
2019-04-05T04:49:54.159Z,15.20
2019-04-05T04:52:26.111Z,15.57
2019-04-05T04:54:55.841Z,17.97
2019-04-05T04:57:27.553Z,18.33
2019-04-05T04:59:56.818Z,15.67
2019-04-05T05:02:26.813Z,16.67
2019-04-05T05:04:57.044Z,20.13
2019-04-05T05:07:26.662Z,18.27
2019-04-05T05:09:57.140Z,17.07
2019-04-05T05:12:27.687Z,17.90
2019-04-05T05:14:56.843Z,17.23
2019-04-05T05:17:38.409Z,16.13
2019-04-05T05:20:04.371Z,16.10
2019-04-05T05:22:33.866Z,17.90
2019-04-05T05:25:03.973Z,18.87
2019-04-05T05:27:33.574Z,16.03
2019-04-05T05:30:03.373Z,16.83
2019-04-05T05:32:34.090Z,15.33
2019-04-05T05:35:05.045Z,15.17
2019-04-05T05:37:35.197Z,15.83
2019-04-05T05:40:05.425Z,15.53
2019-04-05T05:42:34.951Z,15.17
2019-04-05T05:45:04.487Z,17.17
2019-04-05T05:47:33.679Z,17.97
2019-04-05T05:50:04.466Z,17.20
2019-04-05T05:52:36.789Z,20.93
2019-04-05T05:55:06.129Z,19.30
2019-04-05T05:57:35.873Z,20.27
2019-04-05T06:00:08.125Z,20.77
2019-04-05T06:02:39.473Z,20.00
2019-04-05T06:05:09.170Z,20.67
2019-04-05T06:07:38.923Z,18.87
2019-04-05T06:10:08.327Z,17.77
2019-04-05T06:12:37.816Z,15.33
2019-04-05T06:15:08.518Z,14.73
2019-04-05T06:17:38.697Z,17.70
2019-04-05T06:20:08.667Z,15.93
2019-04-05T06:22:38.130Z,13.80
2019-04-05T06:25:10.690Z,14.83
2019-04-05T06:27:39.882Z,13.80
2019-04-05T06:30:12.499Z,13.40
2019-04-05T06:32:42.725Z,14.50
2019-04-05T06:35:12.803Z,16.30
2019-04-05T06:37:43.628Z,14.57
2019-04-05T06:40:13.555Z,13.23
2019-04-05T06:42:44.642Z,14.43
2019-04-05T06:45:14.554Z,16.73
2019-04-05T06:47:46.500Z,12.90
2019-04-05T06:50:16.624Z,15.40
2019-04-05T06:52:46.075Z,13.83
2019-04-05T06:55:15.777Z,14.33
2019-04-05T06:57:44.905Z,14.10
2019-04-05T07:00:16.024Z,14.50
2019-04-05T07:02:46.698Z,14.77
2019-04-05T07:05:16.003Z,14.33
2019-04-05T07:07:45.313Z,15.90
2019-04-05T07:10:16.461Z,15.27
2019-04-05T07:12:45.521Z,13.53
2019-04-05T07:15:14.904Z,13.77
2019-04-05T07:17:44.233Z,13.30
2019-04-05T07:20:13.566Z,13.60
2019-04-05T07:22:43.830Z,14.10
2019-04-05T07:25:13.465Z,13.03
2019-04-05T07:27:43.002Z,13.63
2019-04-05T07:30:13.370Z,13.23
2019-04-05T07:32:45.278Z,13.50
2019-04-05T07:35:14.804Z,12.97
2019-04-05T07:37:44.413Z,14.87
2019-04-05T07:40:14.402Z,12.37
2019-04-05T07:42:44.033Z,14.50
2019-04-05T07:45:13.651Z,14.00
2019-04-05T07:47:42.844Z,13.20
2019-04-05T07:50:14.239Z,13.70
2019-04-05T07:52:43.440Z,15.33
2019-04-05T07:55:14.681Z,12.63
2019-04-05T07:57:43.911Z,11.57
2019-04-05T08:00:40.305Z,13.33
2019-04-05T08:03:09.499Z,14.03
2019-04-05T08:05:38.785Z,11.90
2019-04-05T08:08:18.068Z,12.03
2019-04-05T08:10:47.438Z,14.27
2019-04-05T08:13:17.296Z,12.70
2019-04-05T08:15:46.777Z,14.27
2019-04-05T08:18:17.073Z,12.40
2019-04-05T08:20:46.287Z,12.70
2019-04-05T08:23:16.293Z,13.97
2019-04-05T08:25:46.280Z,14.37
2019-04-05T08:28:16.736Z,14.27
2019-04-05T08:30:46.390Z,13.27
2019-04-05T08:33:18.235Z,12.07
2019-04-05T08:35:47.679Z,13.47
2019-04-05T08:38:17.474Z,13.03
2019-04-05T08:40:46.661Z,17.37
2019-04-05T08:43:20.861Z,13.93
2019-04-05T08:45:50.270Z,13.20
2019-04-05T08:48:19.449Z,15.43
2019-04-05T08:50:48.642Z,17.03
2019-04-05T08:53:18.102Z,16.50
2019-04-05T08:55:49.822Z,16.33
2019-04-05T08:58:19.032Z,16.73
2019-04-05T09:00:48.278Z,16.07
2019-04-05T09:03:19.058Z,14.83
2019-04-05T09:05:48.217Z,15.47
2019-04-05T09:08:17.466Z,16.37
2019-04-05T09:10:46.889Z,18.17
2019-04-05T09:13:18.274Z,13.97
2019-04-05T09:15:47.450Z,16.07
2019-04-05T09:18:17.197Z,16.37
2019-04-05T09:20:46.471Z,14.67
2019-04-05T09:23:17.690Z,13.37
2019-04-05T09:25:47.499Z,14.47
2019-04-05T09:28:17.352Z,13.87
2019-04-05T09:30:46.660Z,16.37
2019-04-05T09:33:16.635Z,15.27
2019-04-05T09:35:45.823Z,18.37
2019-04-05T09:38:15.314Z,17.00
2019-04-05T09:40:44.737Z,16.80
2019-04-05T09:43:15.857Z,19.30
2019-04-05T09:45:48.286Z,13.97
2019-04-05T09:48:17.854Z,17.73
2019-04-05T09:50:52.403Z,20.27
2019-04-05T09:53:23.102Z,16.73
2019-04-05T09:55:52.567Z,19.47
2019-04-05T09:58:21.768Z,16.70
2019-04-05T10:00:52.773Z,18.10
2019-04-05T10:03:23.359Z,17.57
2019-04-05T10:05:53.176Z,17.00
2019-04-05T10:08:24.221Z,19.27
2019-04-05T10:10:53.389Z,18.73
2019-04-05T10:13:22.695Z,19.70
2019-04-05T10:15:51.865Z,15.57
2019-04-05T10:18:21.076Z,20.43
2019-04-05T10:20:50.308Z,21.20
2019-04-05T10:23:19.499Z,18.67
2019-04-05T10:25:49.786Z,20.43
2019-04-05T10:28:23.580Z,20.47
2019-04-05T10:30:53.012Z,18.40
2019-04-05T10:33:24.074Z,22.63
2019-04-05T10:35:53.576Z,25.47
2019-04-05T10:38:25.206Z,22.03
2019-04-05T10:40:54.967Z,24.23
2019-04-05T10:43:28.184Z,22.17
2019-04-05T10:45:57.938Z,20.80
2019-04-05T10:48:27.145Z,22.87
2019-04-05T10:50:56.398Z,22.27
2019-04-05T10:53:25.867Z,23.37
2019-04-05T10:55:55.501Z,22.10
2019-04-05T10:58:24.708Z,23.80
2019-04-05T11:00:53.964Z,19.80
2019-04-05T11:03:23.474Z,23.10
2019-04-05T11:05:53.396Z,24.17
2019-04-05T11:08:23.339Z,24.10
2019-04-05T11:10:53.125Z,25.57
2019-04-05T11:13:22.583Z,24.53
2019-04-05T11:15:54.476Z,25.13
2019-04-05T11:18:25.057Z,23.23
2019-04-05T11:20:54.333Z,25.00
2019-04-05T11:23:24.717Z,24.70
2019-04-05T11:25:56.087Z,27.40
2019-04-05T11:28:25.267Z,26.10
2019-04-05T11:30:54.455Z,24.90
2019-04-05T11:33:24.011Z,27.97
2019-04-05T11:35:53.228Z,25.67
2019-04-05T11:38:25.272Z,27.73
2019-04-05T11:40:54.918Z,30.70
2019-04-05T11:43:30.958Z,26.87
2019-04-05T11:46:18.438Z,27.40
2019-04-05T11:48:48.272Z,24.60
2019-04-05T11:51:19.478Z,29.53
2019-04-05T11:53:48.673Z,27.47
2019-04-05T11:56:21.303Z,31.93
2019-04-05T11:58:51.536Z,26.10
2019-04-05T12:01:23.968Z,30.63
2019-04-05T12:03:53.325Z,25.53
2019-04-05T12:06:23.664Z,28.70
2019-04-05T12:08:53.260Z,28.13
2019-04-05T12:11:22.470Z,24.87
2019-04-05T12:13:51.646Z,26.17
2019-04-05T12:16:20.876Z,26.10
2019-04-05T12:18:50.330Z,27.87
2019-04-05T12:21:20.989Z,27.00
2019-04-05T12:23:50.372Z,26.60
2019-04-05T12:26:19.931Z,25.33
2019-04-05T12:28:49.411Z,29.23
2019-04-05T12:31:18.695Z,26.37
2019-04-05T12:33:51.364Z,28.33
2019-04-05T12:36:21.954Z,30.33
2019-04-05T12:38:49.730Z,25.57
2019-04-05T12:41:18.963Z,24.60
2019-04-05T12:43:50.806Z,26.67
2019-04-05T12:46:19.176Z,28.73
2019-04-05T12:48:48.844Z,26.73
2019-04-05T12:51:18.071Z,26.93
2019-04-05T12:53:47.265Z,25.13
2019-04-05T12:56:21.350Z,25.77
2019-04-05T12:58:51.159Z,27.47
2019-04-05T13:01:21.498Z,28.40
2019-04-05T13:03:52.092Z,28.70
2019-04-05T13:06:22.467Z,27.67
2019-04-05T13:08:53.751Z,31.43
2019-04-05T13:11:26.741Z,30.03
2019-04-05T13:13:56.384Z,29.17
2019-04-05T13:16:26.302Z,27.10
2019-04-05T13:18:55.459Z,28.60
2019-04-05T13:21:27.625Z,30.70
2019-04-05T13:23:55.934Z,29.87
2019-04-05T13:26:26.463Z,29.83
2019-04-05T13:28:56.539Z,30.97
2019-04-05T13:31:25.719Z,29.63
2019-04-05T13:33:55.659Z,30.90
2019-04-05T13:36:25.936Z,34.00
2019-04-05T13:38:55.444Z,32.97
2019-04-05T13:41:26.546Z,29.43
2019-04-05T13:43:55.795Z,29.87
2019-04-05T13:46:26.241Z,33.67
2019-04-05T13:48:55.546Z,31.73
2019-04-05T13:51:28.119Z,33.57
2019-04-05T13:53:55.926Z,32.97
2019-04-05T13:56:25.327Z,32.43
2019-04-05T13:58:54.535Z,29.47
2019-04-05T14:01:24.073Z,33.13
2019-04-05T14:03:58.454Z,30.83
2019-04-05T14:06:30.376Z,36.13
2019-04-05T14:08:59.728Z,30.03
2019-04-05T14:11:29.871Z,31.57
2019-04-05T14:13:59.063Z,32.50
2019-04-05T14:16:28.641Z,29.77
2019-04-05T14:18:58.320Z,33.83
2019-04-05T14:21:39.803Z,28.90
2019-04-05T14:24:00.535Z,32.33
2019-04-05T14:26:32.753Z,34.13
2019-04-05T14:29:03.670Z,28.00
2019-04-05T14:31:33.606Z,29.40
2019-04-05T14:34:05.929Z,28.47
2019-04-05T14:36:36.172Z,29.30
2019-04-05T14:39:08.975Z,30.90
2019-04-05T14:41:40.215Z,29.20
2019-04-05T14:44:09.918Z,27.53
2019-04-05T14:46:39.928Z,30.37
2019-04-05T14:49:09.120Z,30.00
2019-04-05T14:51:38.307Z,31.03
2019-04-05T14:54:09.966Z,27.83
2019-04-05T14:56:38.943Z,35.47
2019-04-05T14:59:08.932Z,44.30
2019-04-05T15:01:38.907Z,37.77
2019-04-05T15:04:08.448Z,37.90
2019-04-05T15:06:37.923Z,32.80
2019-04-05T15:09:07.881Z,27.20
2019-04-05T15:11:37.067Z,29.17
2019-04-05T15:14:06.551Z,29.83
2019-04-05T15:16:36.494Z,35.10
2019-04-05T15:19:06.035Z,30.40
2019-04-05T15:21:38.802Z,30.20
2019-04-05T15:24:08.855Z,58.43
2019-04-05T15:26:38.535Z,65.53
2019-04-05T15:29:07.968Z,53.23
2019-04-05T15:31:37.446Z,47.67
2019-04-05T15:34:06.909Z,42.17
2019-04-05T15:36:36.073Z,35.57
2019-04-05T15:39:09.228Z,31.13
2019-04-05T15:41:38.446Z,32.77
2019-04-05T15:44:08.633Z,33.73
2019-04-05T15:46:38.391Z,31.47
2019-04-05T15:49:07.880Z,30.80
2019-04-05T15:51:37.426Z,34.30
2019-04-05T15:54:06.879Z,33.43
2019-04-05T15:56:39.193Z,32.70
2019-04-05T15:59:08.657Z,31.70
2019-04-05T16:01:38.897Z,34.20
2019-04-05T16:04:08.062Z,33.07
2019-04-05T16:06:39.139Z,32.13
2019-04-05T16:09:11.823Z,35.80
2019-04-05T16:11:42.310Z,36.97
2019-04-05T16:14:12.004Z,40.10
2019-04-05T16:16:41.211Z,39.17
2019-04-05T16:19:10.926Z,41.30
2019-04-05T16:21:40.721Z,39.33
2019-04-05T16:24:10.170Z,43.97
2019-04-05T16:26:39.463Z,44.70
2019-04-05T16:29:08.662Z,42.13
2019-04-05T16:31:38.478Z,42.30
2019-04-05T16:34:09.320Z,44.23
2019-04-05T16:36:41.417Z,46.07
2019-04-05T16:39:19.304Z,46.43
2019-04-05T16:41:52.064Z,46.20
2019-04-05T16:44:21.289Z,47.10
2019-04-05T16:46:51.328Z,57.40
2019-04-05T16:49:23.342Z,48.47
2019-04-05T16:51:55.061Z,53.30
2019-04-05T16:54:24.532Z,52.67
2019-04-05T16:56:53.855Z,52.60
2019-04-05T16:59:24.126Z,51.27
2019-04-05T17:01:56.641Z,55.00
2019-04-05T17:04:25.109Z,49.47
2019-04-05T17:06:54.316Z,51.10
2019-04-05T17:09:25.667Z,51.70
2019-04-05T17:11:58.222Z,62.77
2019-04-05T17:14:27.464Z,51.73
2019-04-05T17:16:56.649Z,57.30
2019-04-05T17:19:25.840Z,52.57
2019-04-05T17:21:55.485Z,55.97
2019-04-05T17:24:24.667Z,57.53
2019-04-05T17:26:54.211Z,54.07
2019-04-05T17:29:23.586Z,55.83
2019-04-05T17:31:55.028Z,53.03
2019-04-05T17:34:24.422Z,53.37
2019-04-05T17:36:54.289Z,58.60
2019-04-05T17:39:23.700Z,59.33
2019-04-05T17:41:55.378Z,58.53
2019-04-05T17:44:25.724Z,54.50
2019-04-05T17:46:59.527Z,59.13
2019-04-05T17:49:29.035Z,54.53
2019-04-05T17:51:58.215Z,51.50
2019-04-05T17:54:27.903Z,50.80
2019-04-05T17:56:57.088Z,56.30
2019-04-05T17:59:26.626Z,54.40
2019-04-05T18:01:56.076Z,53.40
2019-04-05T18:04:25.281Z,57.00
2019-04-05T18:06:54.478Z,58.33
2019-04-05T18:09:27.193Z,61.47
2019-04-05T18:11:58.565Z,57.47
2019-04-05T18:14:30.568Z,68.00
2019-04-05T18:17:01.004Z,57.60
2019-04-05T18:19:30.596Z,58.43
2019-04-05T18:21:59.850Z,62.23
2019-04-05T18:24:29.050Z,60.07
2019-04-05T18:26:58.232Z,60.93
2019-04-05T18:29:29.332Z,55.07
2019-04-05T18:31:58.797Z,53.63
2019-04-05T18:34:31.476Z,54.43
2019-04-05T18:37:00.728Z,57.23
2019-04-05T18:39:30.339Z,58.83
2019-04-05T18:41:59.650Z,69.97
2019-04-05T18:44:29.386Z,69.77
2019-04-05T18:46:59.323Z,75.27
2019-04-05T18:49:28.749Z,64.53
2019-04-05T18:51:58.191Z,63.77
2019-04-05T18:54:27.957Z,63.80
2019-04-05T18:57:05.689Z,53.37
2019-04-05T18:59:35.987Z,51.57
2019-04-05T19:02:06.553Z,54.20
2019-04-05T19:04:36.439Z,54.93
2019-04-05T19:07:09.187Z,59.80
2019-04-05T19:09:42.829Z,64.97
2019-04-05T19:12:12.595Z,56.93
2019-04-05T19:14:47.153Z,56.23
2019-04-05T19:17:23.719Z,53.93
2019-04-05T19:19:48.200Z,64.80
2019-04-05T19:22:17.373Z,54.43
2019-04-05T19:24:48.476Z,52.73
2019-04-05T19:27:18.181Z,57.00
2019-04-05T19:29:47.434Z,56.40
2019-04-05T19:50:00.104Z,63.93
2019-04-05T19:52:30.584Z,56.90
2019-04-05T19:54:59.862Z,51.13
2019-04-05T19:57:30.350Z,56.43
2019-04-05T20:00:00.095Z,57.43
2019-04-05T20:02:30.280Z,58.10
2019-04-05T20:04:59.491Z,64.30
2019-04-05T20:07:28.952Z,56.47
2019-04-05T20:09:58.463Z,65.50
2019-04-05T20:12:28.754Z,58.03
2019-04-05T20:14:57.951Z,58.30
2019-04-05T20:17:27.465Z,60.73
2019-04-05T20:19:56.734Z,57.40
2019-04-05T20:22:25.937Z,51.40
2019-04-05T20:24:55.164Z,54.90
2019-04-05T20:27:25.944Z,55.00
2019-04-05T20:30:00.246Z,55.13
2019-04-05T20:32:31.945Z,52.90
2019-04-05T20:35:01.160Z,53.57
2019-04-05T20:37:31.086Z,53.60
2019-04-05T20:40:01.527Z,57.63
2019-04-05T20:42:31.652Z,50.80
2019-04-05T20:45:01.989Z,52.50
2019-04-05T20:47:31.588Z,50.80
2019-04-05T20:50:01.626Z,55.50
2019-04-05T20:52:31.353Z,57.77
2019-04-05T20:55:01.086Z,56.93
2019-04-05T20:57:30.423Z,56.40
2019-04-05T21:00:00.903Z,69.10
2019-04-05T21:02:30.174Z,60.80
2019-04-05T21:05:04.738Z,56.43
2019-04-05T21:07:34.217Z,60.70
2019-04-05T21:10:07.407Z,56.10
2019-04-05T21:12:36.614Z,61.20
2019-04-05T21:15:06.100Z,56.07
2019-04-05T21:17:36.668Z,58.97
2019-04-05T21:20:07.682Z,56.30
2019-04-05T21:22:36.891Z,53.97
2019-04-05T21:25:06.451Z,53.70
2019-04-05T21:27:35.666Z,51.83
2019-04-05T21:30:05.473Z,53.17
2019-04-05T21:32:34.663Z,67.97
2019-04-05T21:35:05.597Z,61.23
2019-04-05T21:37:35.105Z,63.63
2019-04-05T21:40:06.672Z,72.47
2019-04-05T21:42:37.166Z,55.50
2019-04-05T21:45:09.780Z,54.87
2019-04-05T21:47:38.992Z,59.57
2019-04-05T21:50:09.997Z,49.53
2019-04-05T21:52:39.472Z,52.43
2019-04-05T21:55:08.750Z,57.57
2019-04-05T21:57:38.244Z,51.83
2019-04-05T22:00:13.653Z,56.80
2019-04-05T22:02:44.179Z,51.30
2019-04-05T22:05:13.861Z,56.23
2019-04-05T22:07:43.537Z,56.47
2019-04-05T22:10:13.200Z,61.60
2019-04-05T22:12:43.635Z,54.87
2019-04-05T22:15:12.806Z,53.57
2019-04-05T22:17:42.259Z,54.77
2019-04-05T22:20:11.874Z,57.23
2019-04-05T22:22:41.420Z,60.23
2019-04-05T22:25:10.731Z,55.70
2019-04-05T22:27:40.672Z,56.80
2019-04-05T22:30:10.071Z,52.23
2019-04-05T22:32:39.240Z,58.87
2019-04-05T22:35:09.268Z,53.47
2019-04-05T22:37:40.826Z,55.43
2019-04-05T22:40:10.514Z,57.37
2019-04-05T22:42:40.351Z,57.93
2019-04-05T22:45:09.748Z,56.17
2019-04-05T22:47:38.911Z,60.27
2019-04-05T22:50:08.618Z,59.90
2019-04-05T22:52:39.766Z,58.33
2019-04-05T22:55:11.431Z,56.87
2019-04-05T22:57:42.859Z,61.13
2019-04-05T23:00:14.219Z,56.50
2019-04-05T23:02:44.202Z,57.73
2019-04-05T23:05:13.541Z,56.07
2019-04-05T23:07:42.995Z,55.30
2019-04-05T23:10:12.692Z,53.57
2019-04-05T23:12:43.140Z,58.47
2019-04-05T23:15:12.664Z,59.60
2019-04-05T23:17:42.114Z,58.13
2019-04-05T23:20:12.556Z,58.20
2019-04-05T23:22:42.527Z,53.33
2019-04-05T23:25:21.521Z,61.10
2019-04-05T23:27:43.155Z,58.23
2019-04-05T23:30:14.355Z,54.97
2019-04-05T23:32:43.522Z,53.50
2019-04-05T23:35:12.720Z,56.27
2019-04-05T23:37:41.902Z,58.17
2019-04-05T23:40:13.532Z,56.17
2019-04-05T23:42:43.027Z,62.20
2019-04-05T23:45:14.034Z,56.60
2019-04-05T23:47:43.302Z,56.00
2019-04-05T23:50:12.626Z,54.07
2019-04-05T23:52:42.060Z,48.43
2019-04-05T23:55:11.581Z,50.33
2019-04-05T23:57:40.763Z,56.30
